»·PEaware :: AAL485 KBFL-KLAS

AAL485 :: KBFL-KLAS

FLIGHT INFORMATION

Flight Status: Arrived
Operator:
American Airlines
More flights by this operator :: More flights under this callsign
Pilot: Anonymous 39875 (39875)
Aircraft: EMBRAER EMB-170/175
(E170)
More flights by this aircraft type
Origin: KBFL Meadows
United States
Destination: KLAS Harry Reid Intl
United States
More flights between these airports :: More routes between these airports
Route: MEADO5 PMD HELDE NNAVY MISEN RNDRZ2
File this flight plan on PilotEdge
Remarks: RMK / SIMBRIEF
Altitude:
(Current/Filed)
27,000ft
Speed:
(Current/Filed)
395kts
Departed: 14-Jan-23 01:24 PM
Arrived: 14-Jan-23 02:07 PM
Distance/Time
Traveled:
195nm/0:43
Distance/Time
To Go:
Arrived

Flight Plot

Page will automatically refresh every two minutes.

Flight plan parsing failed; only flown route is shown


Map Options




Map Legend


Flown Route
Filed Route
Departure Airport
Arrival Airport
Navaid (VOR, NDB)
Fix

Horizontal Profiles

Position Reports

Time Latitude Longitude Heading Altitude Ground
Speed
14-Jan-23 13:06 35.436905 -119.054872 44 517ft 0kts
14-Jan-23 13:08 35.436905 -119.054872 44 517ft 0kts
14-Jan-23 13:09 35.436905 -119.054872 44 517ft 0kts
14-Jan-23 13:09 35.436905 -119.054872 44 517ft 0kts
14-Jan-23 13:10 35.436905 -119.054872 44 517ft 0kts
14-Jan-23 13:11 35.436905 -119.054872 44 517ft 0kts
14-Jan-23 13:12 35.436905 -119.054872 44 517ft 0kts
14-Jan-23 13:13 35.436905 -119.054872 44 517ft 0kts
14-Jan-23 13:14 35.436895 -119.054883 44 517ft 1kts
14-Jan-23 13:15 35.436828 -119.055548 135 517ft 0kts
14-Jan-23 13:16 35.436828 -119.055547 135 517ft 0kts
14-Jan-23 13:17 35.436828 -119.055547 135 517ft 0kts
14-Jan-23 13:18 35.436736 -119.055437 135 517ft 4kts
14-Jan-23 13:19 35.434972 -119.055268 140 517ft 8kts
14-Jan-23 13:20 35.431848 -119.051517 135 517ft 19kts
14-Jan-23 13:21 35.429199 -119.048347 136 517ft 8kts
14-Jan-23 13:22 35.425785 -119.044462 218 517ft 7kts
14-Jan-23 13:23 35.426680 -119.047561 315 517ft 54kts
14-Jan-23 13:24 35.461524 -119.092285 313 2320ft 211kts
14-Jan-23 13:25 35.503414 -119.146161 305 4812ft 214kts
14-Jan-23 13:26 35.485525 -119.195750 182 7310ft 204kts
14-Jan-23 13:27 35.433416 -119.146330 135 9904ft 265kts
14-Jan-23 13:28 35.380454 -119.071593 138 12455ft 331kts
14-Jan-23 13:29 35.315393 -118.982617 138 14970ft 365kts
14-Jan-23 13:30 35.245165 -118.887035 138 17312ft 386kts
14-Jan-23 13:31 35.171629 -118.787315 138 19615ft 404kts
14-Jan-23 13:32 35.095076 -118.683818 138 21917ft 418kts
14-Jan-23 13:33 35.015068 -118.576143 138 24162ft 454kts
14-Jan-23 13:34 34.927549 -118.458573 138 25799ft 477kts
14-Jan-23 13:35 34.837324 -118.337674 138 26872ft 493kts
14-Jan-23 13:36 34.743427 -118.212421 137 26900ft 505kts
14-Jan-23 13:37 34.659796 -118.074124 115 26901ft 524kts
14-Jan-23 13:38 34.650391 -117.898620 80 26902ft 531kts
14-Jan-23 13:39 34.669209 -117.720264 82 26893ft 530kts
14-Jan-23 13:40 34.687705 -117.542892 82 26905ft 530kts
14-Jan-23 13:41 34.712297 -117.367263 72 26918ft 527kts
14-Jan-23 13:42 34.764529 -117.201227 66 26916ft 525kts
14-Jan-23 13:43 34.818643 -117.036883 66 26913ft 524kts
14-Jan-23 13:44 34.872540 -116.872340 66 26909ft 523kts
14-Jan-23 13:45 34.931663 -116.710694 57 26909ft 516kts
14-Jan-23 13:46 35.010845 -116.566386 52 25609ft 510kts
14-Jan-23 13:47 35.091804 -116.424408 50 24110ft 509kts
14-Jan-23 13:48 35.182766 -116.299970 43 22848ft 479kts
14-Jan-23 13:49 35.271016 -116.182928 45 20965ft 458kts
14-Jan-23 13:50 35.353862 -116.068584 45 19152ft 439kts
14-Jan-23 13:51 35.432129 -115.960825 46 17423ft 411kts
14-Jan-23 13:52 35.503078 -115.862892 46 15775ft 368kts
14-Jan-23 13:53 35.569044 -115.771618 46 14339ft 345kts
14-Jan-23 13:54 35.622075 -115.677400 59 13034ft 329kts
14-Jan-23 13:55 35.668267 -115.582188 59 11814ft 320kts
14-Jan-23 13:56 35.713086 -115.489709 60 10610ft 306kts
14-Jan-23 13:57 35.759803 -115.407579 33 9460ft 283kts
14-Jan-23 13:58 35.830565 -115.378059 15 8420ft 257kts
14-Jan-23 13:59 35.896946 -115.352944 11 7777ft 251kts
14-Jan-23 14:00 35.960509 -115.335295 11 6361ft 223kts
14-Jan-23 14:01 36.017426 -115.319611 10 5282ft 193kts
14-Jan-23 14:02 36.064375 -115.295970 57 4407ft 184kts
14-Jan-23 14:03 36.073465 -115.240112 90 3588ft 153kts
14-Jan-23 14:04 36.073604 -115.190797 90 2671ft 137kts
14-Jan-23 14:05 36.073630 -115.150921 90 2191ft 49kts
14-Jan-23 14:06 36.073648 -115.138942 88 2191ft 31kts
14-Jan-23 14:07 36.076091 -115.133844 356 2191ft 14kts
14-Jan-23 14:08 36.079119 -115.133791 346 2191ft 13kts
14-Jan-23 14:09 36.080016 -115.134877 315 2191ft 0kts

Navigation Log

Ident Type
Flight plan parsing failed, navigation log unavailable